Tropical Cyclones
[Index]
Main Index Home Page Stock Weather Photos Extreme Storms Discussion Storm News and Storm Chasing Reports Tropical Cyclones / Hurricanes / Typhoons Weather Data and Links Wild Fires / Bushfires Weather Observation Techniques Weather Picture Catalogue Tornado Pictures and Reports Stock Video Footage and DVDs for sale
Season 1992-1993 Tropical Cyclone MONTY Track Map
Season 1992-1993 Summaries: [BoM-AU] [JTWC-AU] [JTWC-SIO] [JTWC-SPAC] [JTWC-SH]
<<- Previous TC | BoM 1992-1993 Season | Next TC ->>

click for intensity scale information  Lat/long Grid: Show Hide

 Date Labels: Show Hide

Bureau of Meteorology Tropical Cyclone Data

Name: MONTY
Number: 759 / 199293_07

06 Apr 1993 00:00 UTC to 13 Apr 1993 06:00 UTC

    date/time    lat    long    hPa   cat  kts
1993-04-06 00   10.5   101.0   1006                     
1993-04-07 00   11.0   102.5   1005         19          
1993-04-08 00   11.5   104.0   1005         19          
1993-04-08 18   12.3   105.3   1004         21          
1993-04-08 21   12.6   105.4   1003         21          
1993-04-09 00   12.9   105.5   1002         23          
1993-04-09 03   13.1   105.7   1001         25          
1993-04-09 06   13.3   105.8   1000         27          
1993-04-09 09   13.5   105.9    999         29          
1993-04-09 12   13.6   105.9    998         29          
1993-04-09 15   13.8   106.0    997         31          
1993-04-09 18   14.0   106.0    995    1    35          
1993-04-09 21   14.3   106.1    995    1    35          
1993-04-10 00   14.7   106.2    995    1    35          
1993-04-10 03   15.0   105.9    992    1    39          
1993-04-10 06   15.3   105.5    992    1    39          
1993-04-10 09   15.6   105.5    992    1    39          
1993-04-10 12   15.9   105.5    995    1    35          
1993-04-10 15   16.2   105.5    995    1    35          
1993-04-10 18   16.4   105.6    995    1    35          
1993-04-10 21   16.7   105.6    995    1    35          
1993-04-11 00   16.9   105.6    992    1    39          
1993-04-11 03   17.1   105.6    992    1    39          
1993-04-11 06   17.2   105.8    995    1    35          
1993-04-11 09   17.5   106.4    995    1    35          
1993-04-11 12   17.8   107.0    995    1    35          
1993-04-11 15   18.1   107.3    995    1    35          
1993-04-11 18   18.5   107.6    995    1    35          
1993-04-11 21   18.8   107.9    995    1    35          
1993-04-12 00   19.0   108.2    995    1    35          
1993-04-12 03   19.3   108.3    995    1    35          
1993-04-12 06   19.5   108.6    995    1    35          
1993-04-12 09   19.4   108.5    997         31          
1993-04-12 12   19.1   108.2    997         31          
1993-04-12 15   19.0   108.2    998         29          
1993-04-12 18   19.0   108.0    998         29          
1993-04-12 21   19.0   107.8    999         29          
1993-04-13 00   19.2   107.6    999         29          
1993-04-13 03   19.3   107.6   1000         27          
1993-04-13 06   19.3   107.6   1002         23          
Winds are 10-min average.

Tropical cyclone tracks developed by Michael Bath using data from the Bureau of Meteorology and Google Maps.


[Australian Severe Weather index] [Copyright Notice] [Email Contacts] [Search This Site] [Privacy Policy]
Document: tropical_cyclone_monty.htm Updated: 30 May 2013